Wetterdaten: Woche 05.10.15 - 11.10.15 (KW41)
Datum Zeit Temperatur Luftfeuchte Luftdruck Niederschlag Windrichtung Sonnenschein Solar Wind
05.10.2015 00:00 6,5 C 92 % 1015,7 hPa 0,0 l/m N 0,00 h 0 W/m 0,0 km/h (0 Bft)
05.10.2015 01:00 5,9 C 92 % 1015,8 hPa 0,0 l/m SW 0,00 h 0 W/m 0,7 km/h (0 Bft)
05.10.2015 02:00 5,8 C 94 % 1015,5 hPa 0,0 l/m N 0,00 h 0 W/m 0,0 km/h (0 Bft)
05.10.2015 03:00 5,7 C 94 % 1015,4 hPa 0,0 l/m N 0,00 h 0 W/m 0,0 km/h (0 Bft)
05.10.2015 04:00 5,5 C 95 % 1015,4 hPa 0,0 l/m N 0,00 h 0 W/m 0,0 km/h (0 Bft)
05.10.2015 05:00 5,4 C 95 % 1015,8 hPa 0,0 l/m N 0,00 h 0 W/m 0,0 km/h (0 Bft)
05.10.2015 06:00 5,2 C 95 % 1016,2 hPa 0,0 l/m N 0,00 h 0 W/m 0,0 km/h (0 Bft)
05.10.2015 07:00 5,1 C 96 % 1016,1 hPa 0,0 l/m N 0,00 h 7 W/m 0,0 km/h (0 Bft)
05.10.2015 08:00 5,3 C 96 % 1015,9 hPa 0,0 l/m SW 0,25 h 65 W/m 1,7 km/h (1 Bft)
05.10.2015 09:00 7,1 C 98 % 1015,9 hPa 0,0 l/m SW 0,42 h 152 W/m 1,5 km/h (1 Bft)
05.10.2015 10:00 9,1 C 98 % 1015,9 hPa 0,0 l/m SW 0,00 h 101 W/m 3,1 km/h (1 Bft)
05.10.2015 11:00 10,4 C 98 % 1016,0 hPa 0,0 l/m SW 0,00 h 160 W/m 5,4 km/h (1 Bft)
05.10.2015 12:00 12,1 C 96 % 1015,4 hPa 0,0 l/m S-SW 0,00 h 183 W/m 7,2 km/h (2 Bft)
05.10.2015 13:00 14,4 C 86 % 1014,3 hPa 0,0 l/m SO 0,92 h 591 W/m 8,3 km/h (2 Bft)
05.10.2015 14:00 16,7 C 75 % 1013,2 hPa 0,0 l/m S-SW 0,92 h 501 W/m 7,8 km/h (2 Bft)
05.10.2015 15:00 18,5 C 68 % 1012,4 hPa 0,0 l/m S-SW 1,00 h 405 W/m 4,4 km/h (1 Bft)
05.10.2015 16:00 20,1 C 63 % 1011,6 hPa 0,0 l/m S-SW 0,67 h 243 W/m 2,9 km/h (1 Bft)
05.10.2015 17:00 19,1 C 65 % 1011,1 hPa 0,0 l/m S-SW 0,25 h 96 W/m 2,0 km/h (1 Bft)
05.10.2015 18:00 17,9 C 73 % 1010,6 hPa 0,0 l/m N 0,00 h 23 W/m 1,3 km/h (1 Bft)
05.10.2015 19:00 16,2 C 79 % 1010,6 hPa 0,0 l/m N 0,00 h 0 W/m 1,7 km/h (1 Bft)
05.10.2015 20:00 15,0 C 84 % 1010,4 hPa 0,0 l/m SW 0,00 h 0 W/m 1,9 km/h (1 Bft)
05.10.2015 21:00 14,4 C 87 % 1009,5 hPa 0,0 l/m N 0,00 h 0 W/m 0,0 km/h (0 Bft)
05.10.2015 22:00 13,7 C 90 % 1009,3 hPa 0,2 l/m N 0,00 h 0 W/m 0,1 km/h (0 Bft)
05.10.2015 23:00 13,3 C 92 % 1009,1 hPa 0,0 l/m SW 0,00 h 0 W/m 2,7 km/h (1 Bft)
06.10.2015 00:00 13,2 C 93 % 1009,1 hPa 0,0 l/m SW 0,00 h 0 W/m 11,5 km/h (2 Bft)
06.10.2015 01:00 13,1 C 94 % 1008,6 hPa 0,0 l/m SW 0,00 h 0 W/m 16,5 km/h (3 Bft)
06.10.2015 02:00 12,8 C 95 % 1008,1 hPa 0,0 l/m SW 0,00 h 0 W/m 12,5 km/h (3 Bft)
06.10.2015 03:00 12,8 C 95 % 1008,0 hPa 0,0 l/m SW 0,00 h 0 W/m 2,9 km/h (1 Bft)
06.10.2015 04:00 12,8 C 96 % 1007,7 hPa 0,2 l/m SW 0,00 h 0 W/m 3,6 km/h (1 Bft)
06.10.2015 05:00 12,5 C 96 % 1007,4 hPa 0,0 l/m SW 0,00 h 0 W/m 5,0 km/h (1 Bft)
06.10.2015 06:00 12,3 C 96 % 1007,1 hPa 0,0 l/m N 0,00 h 0 W/m 0,4 km/h (0 Bft)
06.10.2015 07:00 11,7 C 96 % 1006,7 hPa 0,0 l/m N 0,00 h 9 W/m 0,4 km/h (0 Bft)
06.10.2015 08:00 11,2 C 96 % 1006,1 hPa 0,0 l/m N 0,00 h 61 W/m 0,0 km/h (0 Bft)
06.10.2015 09:00 12,3 C 98 % 1005,8 hPa 0,0 l/m N 0,75 h 215 W/m 0,0 km/h (0 Bft)
06.10.2015 10:00 14,1 C 98 % 1005,4 hPa 0,0 l/m N 0,75 h 324 W/m 0,0 km/h (0 Bft)
06.10.2015 11:00 16,4 C 91 % 1004,8 hPa 0,0 l/m N 0,58 h 396 W/m 0,0 km/h (0 Bft)
06.10.2015 12:00 19,1 C 79 % 1004,4 hPa 0,0 l/m N 0,67 h 388 W/m 0,0 km/h (0 Bft)
06.10.2015 13:00 20,9 C 71 % 1004,2 hPa 0,0 l/m N 0,42 h 288 W/m 0,0 km/h (0 Bft)
06.10.2015 14:00 21,5 C 67 % 1003,9 hPa 0,0 l/m N 0,42 h 346 W/m 0,4 km/h (0 Bft)
06.10.2015 15:00 21,4 C 67 % 1003,8 hPa 0,0 l/m W-SW 0,00 h 98 W/m 0,0 km/h (0 Bft)
06.10.2015 16:00 16,6 C 84 % 1005,7 hPa 10,0 l/m W 0,00 h 25 W/m 20,7 km/h (4 Bft)
06.10.2015 17:00 14,3 C 94 % 1006,1 hPa 0,8 l/m W-SW 0,00 h 29 W/m 8,0 km/h (2 Bft)
06.10.2015 18:00 13,9 C 95 % 1006,6 hPa 0,0 l/m SW 0,00 h 11 W/m 13,7 km/h (3 Bft)
06.10.2015 19:00 13,6 C 96 % 1006,8 hPa 0,0 l/m SW 0,00 h 0 W/m 11,4 km/h (2 Bft)
06.10.2015 20:00 13,1 C 97 % 1006,9 hPa 0,2 l/m SW 0,00 h 0 W/m 5,2 km/h (1 Bft)
06.10.2015 21:00 12,8 C 97 % 1007,1 hPa 0,0 l/m N 0,00 h 0 W/m 0,0 km/h (0 Bft)
06.10.2015 22:00 12,7 C 97 % 1007,4 hPa 0,0 l/m SW 0,00 h 0 W/m 1,2 km/h (1 Bft)
06.10.2015 23:00 12,5 C 97 % 1007,7 hPa 0,0 l/m N 0,00 h 0 W/m 0,7 km/h (0 Bft)
07.10.2015 00:00 12,3 C 98 % 1007,8 hPa 0,0 l/m SW 0,00 h 0 W/m 1,9 km/h (1 Bft)
07.10.2015 01:00 12,1 C 98 % 1008,0 hPa 0,0 l/m SW 0,00 h 0 W/m 1,1 km/h (0 Bft)
07.10.2015 02:00 12,0 C 98 % 1008,1 hPa 0,2 l/m N 0,00 h 0 W/m 0,0 km/h (0 Bft)
07.10.2015 03:00 12,1 C 98 % 1008,4 hPa 0,2 l/m SW 0,00 h 0 W/m 2,1 km/h (1 Bft)
07.10.2015 04:00 11,9 C 98 % 1008,5 hPa 0,0 l/m SW 0,00 h 0 W/m 2,1 km/h (1 Bft)
07.10.2015 05:00 11,9 C 98 % 1008,7 hPa 0,0 l/m SW 0,00 h 0 W/m 1,9 km/h (1 Bft)
07.10.2015 06:00 11,9 C 98 % 1008,8 hPa 0,0 l/m N 0,00 h 0 W/m 0,4 km/h (0 Bft)
07.10.2015 07:00 12,0 C 98 % 1009,3 hPa 0,2 l/m SW 0,00 h 7 W/m 4,7 km/h (1 Bft)
07.10.2015 08:00 12,3 C 99 % 1009,9 hPa 0,4 l/m SW 0,00 h 33 W/m 6,9 km/h (2 Bft)
07.10.2015 09:00 12,9 C 99 % 1010,5 hPa 0,0 l/m SW 0,00 h 64 W/m 9,9 km/h (2 Bft)
07.10.2015 10:00 13,2 C 99 % 1011,0 hPa 0,0 l/m W-SW 0,00 h 140 W/m 12,4 km/h (3 Bft)
07.10.2015 11:00 13,7 C 99 % 1011,5 hPa 0,0 l/m W-SW 0,00 h 122 W/m 10,3 km/h (2 Bft)
07.10.2015 12:00 14,2 C 97 % 1011,8 hPa 0,0 l/m W-SW 0,00 h 204 W/m 12,2 km/h (2 Bft)
07.10.2015 13:00 15,2 C 88 % 1012,0 hPa 0,0 l/m W 0,25 h 311 W/m 13,7 km/h (3 Bft)
07.10.2015 14:00 16,6 C 74 % 1012,0 hPa 0,0 l/m W 0,67 h 454 W/m 15,7 km/h (3 Bft)
07.10.2015 15:00 16,5 C 73 % 1012,2 hPa 0,0 l/m W 0,33 h 237 W/m 15,7 km/h (3 Bft)
07.10.2015 16:00 16,2 C 76 % 1012,7 hPa 0,0 l/m W 0,17 h 165 W/m 18,8 km/h (3 Bft)
07.10.2015 17:00 15,3 C 76 % 1013,1 hPa 0,0 l/m W-SW 0,33 h 115 W/m 18,0 km/h (3 Bft)
07.10.2015 18:00 14,4 C 79 % 1013,7 hPa 0,0 l/m W 0,00 h 18 W/m 11,5 km/h (2 Bft)
07.10.2015 19:00 13,5 C 79 % 1014,5 hPa 0,0 l/m W 0,00 h 0 W/m 9,0 km/h (2 Bft)
07.10.2015 20:00 12,8 C 79 % 1015,0 hPa 0,0 l/m W 0,00 h 0 W/m 5,2 km/h (1 Bft)
07.10.2015 21:00 12,2 C 82 % 1015,4 hPa 0,0 l/m W 0,00 h 0 W/m 7,5 km/h (2 Bft)
07.10.2015 22:00 11,9 C 83 % 1015,8 hPa 0,0 l/m W 0,00 h 0 W/m 7,8 km/h (2 Bft)
07.10.2015 23:00 11,6 C 84 % 1016,2 hPa 0,0 l/m W 0,00 h 0 W/m 3,3 km/h (1 Bft)
08.10.2015 00:00 11,4 C 85 % 1016,5 hPa 0,0 l/m N 0,00 h 0 W/m 0,0 km/h (0 Bft)
08.10.2015 01:00 11,0 C 87 % 1016,5 hPa 0,0 l/m N 0,00 h 0 W/m 0,1 km/h (0 Bft)
08.10.2015 02:00 10,8 C 89 % 1016,6 hPa 0,0 l/m N 0,00 h 0 W/m 0,9 km/h (0 Bft)
08.10.2015 03:00 10,8 C 89 % 1016,7 hPa 0,0 l/m N 0,00 h 0 W/m 0,7 km/h (0 Bft)
08.10.2015 04:00 10,6 C 89 % 1016,6 hPa 0,0 l/m N 0,00 h 0 W/m 0,3 km/h (0 Bft)
08.10.2015 05:00 10,3 C 89 % 1016,6 hPa 0,0 l/m W 0,00 h 0 W/m 1,1 km/h (0 Bft)
08.10.2015 06:00 10,0 C 90 % 1016,6 hPa 0,0 l/m N 0,00 h 0 W/m 0,3 km/h (0 Bft)
08.10.2015 07:00 9,8 C 91 % 1016,7 hPa 0,0 l/m N 0,00 h 11 W/m 0,0 km/h (0 Bft)
08.10.2015 08:00 9,8 C 93 % 1017,0 hPa 0,0 l/m N 0,00 h 43 W/m 0,0 km/h (0 Bft)
08.10.2015 09:00 10,2 C 93 % 1017,4 hPa 0,0 l/m N 0,08 h 145 W/m 0,5 km/h (0 Bft)
08.10.2015 10:00 11,3 C 90 % 1017,7 hPa 0,0 l/m W 0,08 h 194 W/m 2,7 km/h (1 Bft)
08.10.2015 11:00 12,5 C 84 % 1017,9 hPa 0,0 l/m W 0,00 h 169 W/m 2,8 km/h (1 Bft)
08.10.2015 12:00 13,2 C 80 % 1018,0 hPa 0,0 l/m W 0,00 h 151 W/m 4,7 km/h (1 Bft)
08.10.2015 13:00 13,6 C 77 % 1018,0 hPa 0,0 l/m W 0,00 h 131 W/m 2,5 km/h (1 Bft)
08.10.2015 14:00 14,0 C 75 % 1017,8 hPa 0,0 l/m W-SW 0,00 h 175 W/m 2,7 km/h (1 Bft)
08.10.2015 15:00 14,6 C 72 % 1017,6 hPa 0,0 l/m SO 0,00 h 144 W/m 4,9 km/h (1 Bft)
08.10.2015 16:00 14,4 C 72 % 1017,7 hPa 0,0 l/m O-SO 0,00 h 70 W/m 6,4 km/h (2 Bft)
08.10.2015 17:00 13,6 C 75 % 1017,9 hPa 0,0 l/m N-NO 0,00 h 18 W/m 8,3 km/h (2 Bft)
08.10.2015 18:00 12,7 C 81 % 1018,0 hPa 0,0 l/m NO 0,00 h 7 W/m 5,1 km/h (1 Bft)
08.10.2015 19:00 12,1 C 85 % 1018,4 hPa 0,0 l/m NO 0,00 h 0 W/m 5,5 km/h (1 Bft)
08.10.2015 20:00 11,6 C 86 % 1018,7 hPa 0,0 l/m NO 0,00 h 0 W/m 1,5 km/h (1 Bft)
08.10.2015 21:00 11,2 C 87 % 1018,9 hPa 0,0 l/m NO 0,00 h 0 W/m 1,5 km/h (1 Bft)
08.10.2015 22:00 10,8 C 87 % 1018,9 hPa 0,0 l/m N 0,00 h 0 W/m 0,0 km/h (0 Bft)
08.10.2015 23:00 10,6 C 86 % 1019,1 hPa 0,0 l/m N 0,00 h 0 W/m 0,4 km/h (0 Bft)
09.10.2015 00:00 10,4 C 87 % 1018,8 hPa 0,0 l/m N 0,00 h 0 W/m 1,6 km/h (1 Bft)
09.10.2015 01:00 10,3 C 87 % 1018,6 hPa 0,0 l/m N 0,00 h 0 W/m 0,1 km/h (0 Bft)
09.10.2015 02:00 9,9 C 89 % 1018,5 hPa 0,0 l/m N 0,00 h 0 W/m 0,9 km/h (0 Bft)
09.10.2015 03:00 9,8 C 90 % 1018,1 hPa 0,0 l/m NO 0,00 h 0 W/m 1,9 km/h (1 Bft)
09.10.2015 04:00 9,5 C 90 % 1017,9 hPa 0,0 l/m N 0,00 h 0 W/m 0,0 km/h (0 Bft)
09.10.2015 05:00 9,2 C 91 % 1017,9 hPa 0,0 l/m N 0,00 h 0 W/m 0,3 km/h (0 Bft)
09.10.2015 06:00 9,1 C 92 % 1017,9 hPa 0,0 l/m N 0,00 h 0 W/m 0,0 km/h (0 Bft)
09.10.2015 07:00 9,2 C 93 % 1018,0 hPa 0,0 l/m NO 0,00 h 6 W/m 3,1 km/h (1 Bft)
09.10.2015 08:00 9,2 C 93 % 1018,1 hPa 0,0 l/m NO 0,00 h 7 W/m 5,8 km/h (2 Bft)
09.10.2015 09:00 9,2 C 93 % 1018,2 hPa 0,0 l/m NO 0,00 h 7 W/m 5,2 km/h (1 Bft)
09.10.2015 10:00 9,2 C 93 % 1018,3 hPa 0,0 l/m NO 0,00 h 7 W/m 4,3 km/h (1 Bft)
09.10.2015 11:00 11,4 C 91 % 1017,8 hPa 0,0 l/m O-NO 0,00 h 176 W/m 10,1 km/h (2 Bft)
09.10.2015 12:00 12,9 C 83 % 1017,4 hPa 0,0 l/m O-NO 0,33 h 331 W/m 12,0 km/h (2 Bft)
09.10.2015 13:00 13,9 C 79 % 1016,9 hPa 0,0 l/m NO 0,00 h 150 W/m 12,1 km/h (2 Bft)
09.10.2015 14:00 14,2 C 77 % 1016,7 hPa 0,0 l/m NO 0,08 h 176 W/m 11,1 km/h (2 Bft)
09.10.2015 15:00 14,2 C 78 % 1016,2 hPa 0,0 l/m O-NO 0,17 h 226 W/m 12,5 km/h (3 Bft)
09.10.2015 16:00 14,6 C 75 % 1016,3 hPa 0,0 l/m O-NO 0,17 h 144 W/m 13,0 km/h (3 Bft)
09.10.2015 17:00 14,3 C 77 % 1016,4 hPa 0,0 l/m O-NO 0,00 h 60 W/m 6,3 km/h (2 Bft)
09.10.2015 18:00 13,7 C 79 % 1016,3 hPa 0,0 l/m O-NO 0,00 h 21 W/m 2,1 km/h (1 Bft)
09.10.2015 19:00 12,6 C 83 % 1016,5 hPa 0,0 l/m N 0,00 h 0 W/m 0,0 km/h (0 Bft)
09.10.2015 20:00 11,8 C 87 % 1016,5 hPa 0,0 l/m O-NO 0,00 h 0 W/m 1,9 km/h (1 Bft)
09.10.2015 21:00 11,6 C 89 % 1016,3 hPa 0,0 l/m N 0,00 h 0 W/m 3,6 km/h (1 Bft)
09.10.2015 22:00 11,5 C 88 % 1016,4 hPa 0,0 l/m O-NO 0,00 h 0 W/m 2,3 km/h (1 Bft)
09.10.2015 23:00 11,4 C 88 % 1016,2 hPa 0,0 l/m O-NO 0,00 h 0 W/m 5,6 km/h (1 Bft)
10.10.2015 00:00 10,9 C 88 % 1015,6 hPa 0,0 l/m NO 0,00 h 0 W/m 7,1 km/h (2 Bft)
10.10.2015 01:00 9,9 C 90 % 1015,6 hPa 0,0 l/m NO 0,00 h 0 W/m 6,0 km/h (2 Bft)
10.10.2015 02:00 9,2 C 92 % 1015,4 hPa 0,0 l/m NO 0,00 h 0 W/m 5,2 km/h (1 Bft)
10.10.2015 03:00 8,6 C 93 % 1015,1 hPa 0,0 l/m NO 0,00 h 0 W/m 3,2 km/h (1 Bft)
10.10.2015 04:00 8,0 C 94 % 1014,9 hPa 0,0 l/m NO 0,00 h 0 W/m 5,3 km/h (1 Bft)
10.10.2015 05:00 8,0 C 95 % 1014,6 hPa 0,0 l/m NO 0,00 h 0 W/m 7,1 km/h (2 Bft)
10.10.2015 06:00 8,3 C 97 % 1014,6 hPa 0,0 l/m NO 0,00 h 0 W/m 8,4 km/h (2 Bft)
10.10.2015 07:00 8,5 C 97 % 1014,5 hPa 0,0 l/m NO 0,00 h 6 W/m 9,0 km/h (2 Bft)
10.10.2015 08:00 8,3 C 98 % 1014,4 hPa 0,0 l/m NO 0,00 h 14 W/m 9,8 km/h (2 Bft)
10.10.2015 09:00 8,3 C 98 % 1014,4 hPa 0,0 l/m NO 0,00 h 16 W/m 12,0 km/h (2 Bft)
10.10.2015 10:00 8,3 C 98 % 1014,2 hPa 0,0 l/m O-NO 0,00 h 16 W/m 11,4 km/h (2 Bft)
10.10.2015 11:00 8,3 C 98 % 1013,8 hPa 0,0 l/m NO 0,00 h 16 W/m 13,6 km/h (3 Bft)
10.10.2015 12:00 8,3 C 98 % 1013,4 hPa 0,0 l/m NO 0,00 h 16 W/m 13,7 km/h (3 Bft)
10.10.2015 13:00 8,3 C 98 % 1013,0 hPa 0,0 l/m NO 0,00 h 16 W/m 12,6 km/h (3 Bft)
10.10.2015 14:00 8,3 C 98 % 1012,4 hPa 0,0 l/m O-NO 0,00 h 16 W/m 16,1 km/h (3 Bft)
10.10.2015 15:00 8,3 C 98 % 1011,9 hPa 0,0 l/m NO 0,00 h 16 W/m 15,2 km/h (3 Bft)
10.10.2015 16:00 8,3 C 98 % 1011,6 hPa 0,0 l/m NO 0,00 h 16 W/m 13,7 km/h (3 Bft)
10.10.2015 17:00 8,3 C 98 % 1011,6 hPa 0,0 l/m NO 0,00 h 16 W/m 14,8 km/h (3 Bft)
10.10.2015 18:00 8,3 C 98 % 1011,7 hPa 0,0 l/m NO 0,08 h 16 W/m 12,2 km/h (2 Bft)
10.10.2015 19:00 8,3 C 98 % 1011,8 hPa 0,0 l/m NO 0,00 h 16 W/m 12,9 km/h (3 Bft)
10.10.2015 20:00 8,3 C 98 % 1011,9 hPa 0,0 l/m NO 0,00 h 16 W/m 14,5 km/h (3 Bft)
10.10.2015 21:00 8,3 C 98 % 1012,0 hPa 0,0 l/m NO 0,00 h 16 W/m 15,7 km/h (3 Bft)
10.10.2015 22:00 8,3 C 98 % 1012,0 hPa 0,0 l/m NO 0,00 h 16 W/m 13,6 km/h (3 Bft)
10.10.2015 23:00 8,3 C 98 % 1011,7 hPa 0,0 l/m NO 0,00 h 16 W/m 14,8 km/h (3 Bft)
11.10.2015 00:00 0,8 C 9 % 1011,5 hPa 0,0 l/m NO 0,00 h 16 W/m 14,1 km/h (3 Bft)
11.10.2015 01:00 0,0 C 0 % 1011,2 hPa 0,0 l/m NO 0,00 h 0 W/m 12,2 km/h (2 Bft)
11.10.2015 02:00 0,0 C 0 % 1011,0 hPa 0,0 l/m NO 0,00 h 0 W/m 11,3 km/h (2 Bft)
11.10.2015 03:00 0,0 C 0 % 1010,7 hPa 0,0 l/m O-NO 0,00 h 0 W/m 13,6 km/h (3 Bft)
11.10.2015 04:00 0,0 C 0 % 1010,5 hPa 0,0 l/m O-NO 0,00 h 0 W/m 13,2 km/h (3 Bft)
11.10.2015 05:00 0,0 C 0 % 1010,5 hPa 0,0 l/m O-NO 0,00 h 0 W/m 12,2 km/h (2 Bft)
11.10.2015 06:00 0,0 C 0 % 1010,8 hPa 0,0 l/m NO 0,00 h 0 W/m 13,4 km/h (3 Bft)
11.10.2015 07:00 0,0 C 0 % 1010,9 hPa 0,0 l/m NO 0,00 h 0 W/m 13,7 km/h (3 Bft)
11.10.2015 08:00 0,0 C 0 % 1010,6 hPa 0,0 l/m O-NO 0,00 h 0 W/m 13,6 km/h (3 Bft)
11.10.2015 09:00 5,8 C 74 % 1010,6 hPa 0,0 l/m O-NO 0,00 h 27 W/m 14,2 km/h (3 Bft)
11.10.2015 10:00 7,8 C 98 % 1011,5 hPa 0,0 l/m NO 0,00 h 38 W/m 11,0 km/h (2 Bft)
11.10.2015 11:00 8,2 C 98 % 1011,9 hPa 0,0 l/m O-NO 0,00 h 62 W/m 15,3 km/h (3 Bft)
11.10.2015 12:00 8,6 C 97 % 1011,9 hPa 0,0 l/m O-NO 0,00 h 83 W/m 15,8 km/h (3 Bft)
11.10.2015 13:00 9,3 C 94 % 1011,8 hPa 0,0 l/m O 0,00 h 102 W/m 16,4 km/h (3 Bft)
11.10.2015 14:00 9,9 C 90 % 1011,2 hPa 0,0 l/m O-NO 0,00 h 102 W/m 20,1 km/h (4 Bft)
11.10.2015 15:00 10,2 C 88 % 1011,0 hPa 0,0 l/m O-NO 0,00 h 57 W/m 17,2 km/h (3 Bft)
11.10.2015 16:00 10,0 C 87 % 1011,2 hPa 0,0 l/m O 0,00 h 41 W/m 17,3 km/h (3 Bft)
11.10.2015 17:00 9,7 C 87 % 1011,2 hPa 0,0 l/m O 0,00 h 21 W/m 19,0 km/h (3 Bft)
11.10.2015 18:00 9,4 C 88 % 1011,4 hPa 0,0 l/m O 0,00 h 6 W/m 16,5 km/h (3 Bft)
11.10.2015 19:00 9,2 C 89 % 1011,7 hPa 0,0 l/m O 0,00 h 0 W/m 19,7 km/h (3 Bft)
11.10.2015 20:00 8,8 C 90 % 1012,0 hPa 0,0 l/m O-NO 0,00 h 0 W/m 18,1 km/h (3 Bft)
11.10.2015 21:00 8,3 C 89 % 1012,2 hPa 0,0 l/m O-NO 0,00 h 0 W/m 11,4 km/h (2 Bft)
11.10.2015 22:00 7,3 C 90 % 1012,4 hPa 0,0 l/m NO 0,00 h 0 W/m 4,9 km/h (1 Bft)
11.10.2015 23:00 6,5 C 92 % 1012,5 hPa 0,0 l/m NO 0,00 h 0 W/m 6,5 km/h (2 Bft)
Min-Datum _ 11.10.15 11.10.15 06.10.15 - - - - 05.10.15
_ Min-Zeit 00:05 00:05 14:50 - - - - 00:00
Minimum _ 0,0 C 0 % 1003,7 hPa - - - - 0,0 km/h (0 Bft)
Max-Datum _ 06.10.15 06.10.15 08.10.15 06.10.15 - 05.10.15 07.10.15 06.10.15
_ Max-Zeit 14:50 23:45 22:35 16:10 - 08:40 13:50 16:10
Maximum _ 21,8 C 100 % 1019,1 hPa 10,0 l/m - 0,08 h 763 W/m 46,7 km/h
W-NW (6 Bft)
Durchschnitt _ 10,8 C 85 % 1013,0 hPa #12,4 l/m NO #10:45 h 113 W/m 6,8 km/h (2 Bft)